createdAt,value
2023-01-03T00:02:16.553Z,7.90
2023-01-03T00:04:49.194Z,5.15
2023-01-03T00:07:34.368Z,8.68
2023-01-03T00:10:07.800Z,7.53
2023-01-03T00:12:36.019Z,12.15
2023-01-03T00:15:04.487Z,9.70
2023-01-03T00:17:31.920Z,14.70
2023-01-03T00:19:59.324Z,9.77
2023-01-03T00:22:26.827Z,5.63
2023-01-03T00:24:54.208Z,6.22
2023-01-03T00:27:21.556Z,15.15
2023-01-03T00:29:51.203Z,10.25
2023-01-03T00:32:18.938Z,5.75
2023-01-03T00:34:47.576Z,6.00
2023-01-03T00:37:16.185Z,5.60
2023-01-03T00:39:44.331Z,8.48
2023-01-03T00:42:11.723Z,9.80
2023-01-03T00:44:38.871Z,9.27
2023-01-03T00:47:06.397Z,11.43
2023-01-03T00:49:33.753Z,4.72
2023-01-03T00:52:01.124Z,7.63
2023-01-03T00:54:28.517Z,6.75
2023-01-03T00:56:55.793Z,6.75
2023-01-03T00:59:23.306Z,7.78
2023-01-03T01:01:54.694Z,18.55
2023-01-03T01:04:30.337Z,13.10
2023-01-03T01:07:03.382Z,2.63
2023-01-03T01:09:34.319Z,9.27
2023-01-03T01:12:02.147Z,8.15
2023-01-03T01:14:31.296Z,5.65
2023-01-03T01:17:08.380Z,4.30
2023-01-03T01:19:39.122Z,7.35
2023-01-03T01:22:06.887Z,11.73
2023-01-03T01:24:34.786Z,7.97
2023-01-03T01:27:02.489Z,8.23
2023-01-03T01:29:29.806Z,8.70
2023-01-03T01:31:57.205Z,4.00
2023-01-03T01:34:24.799Z,8.30
2023-01-03T01:36:52.893Z,7.07
2023-01-03T01:39:23.256Z,4.22
2023-01-03T01:42:18.226Z,4.95
2023-01-03T01:45:15.458Z,8.65
2023-01-03T01:47:49.451Z,15.07
2023-01-03T01:50:19.861Z,12.20
2023-01-03T01:52:58.274Z,9.25
2023-01-03T01:55:39.781Z,9.65
2023-01-03T01:58:09.256Z,6.90
2023-01-03T02:00:37.915Z,11.07
2023-01-03T02:03:05.636Z,9.15
2023-01-03T02:05:36.564Z,9.48
2023-01-03T02:08:04.576Z,7.15
2023-01-03T02:10:34.489Z,8.25
2023-01-03T02:13:42.850Z,11.75
2023-01-03T02:16:50.827Z,5.70
2023-01-03T02:19:39.506Z,12.02
2023-01-03T02:22:09.585Z,7.70
2023-01-03T02:25:07.586Z,3.75
2023-01-03T02:27:55.992Z,7.13
2023-01-03T02:30:28.926Z,11.45
2023-01-03T02:33:18.264Z,7.88
2023-01-03T02:36:22.955Z,8.68
2023-01-03T02:39:13.180Z,8.57
2023-01-03T02:41:48.717Z,7.43
2023-01-03T02:44:22.319Z,7.05
2023-01-03T02:46:54.128Z,14.18
2023-01-03T02:49:44.144Z,6.60
2023-01-03T02:52:15.414Z,13.75
2023-01-03T02:55:04.866Z,9.93
2023-01-03T02:57:42.005Z,10.23
2023-01-03T03:00:30.430Z,8.40
2023-01-03T03:03:06.880Z,5.47
2023-01-03T03:05:46.003Z,8.80
2023-01-03T03:08:13.337Z,11.85
2023-01-03T03:11:00.503Z,6.82
2023-01-03T03:13:52.652Z,8.65
2023-01-03T03:16:43.921Z,6.68
2023-01-03T03:19:41.645Z,5.97
2023-01-03T03:22:36.943Z,7.82
2023-01-03T03:25:11.352Z,15.48
2023-01-03T03:28:01.003Z,10.83
2023-01-03T03:30:31.424Z,9.68
2023-01-03T03:33:06.574Z,12.75
2023-01-03T03:35:44.482Z,11.77
2023-01-03T03:38:15.570Z,7.22
2023-01-03T03:41:12.089Z,7.45
2023-01-03T03:44:06.132Z,10.10
2023-01-03T03:46:43.339Z,12.02
2023-01-03T03:49:34.821Z,9.88
2023-01-03T03:52:04.678Z,7.35
2023-01-03T03:54:36.040Z,12.20
2023-01-03T03:57:39.383Z,11.10
2023-01-03T04:00:11.821Z,23.20
2023-01-03T04:02:40.244Z,5.60
2023-01-03T04:05:11.546Z,10.40
2023-01-03T04:07:40.376Z,6.97
2023-01-03T04:10:09.585Z,13.48
2023-01-03T04:12:37.450Z,7.85
2023-01-03T04:15:07.229Z,12.40
2023-01-03T04:17:35.072Z,6.82
2023-01-03T04:20:02.405Z,6.10
2023-01-03T04:22:29.858Z,12.32
2023-01-03T04:24:57.223Z,8.80
2023-01-03T04:27:24.567Z,5.68
2023-01-03T04:29:51.885Z,6.68
2023-01-03T04:32:19.120Z,5.85
2023-01-03T04:34:46.328Z,11.57
2023-01-03T04:37:13.790Z,6.80
2023-01-03T04:39:40.912Z,8.57
2023-01-03T04:42:28.805Z,5.28
2023-01-03T04:44:56.056Z,9.77
2023-01-03T04:47:23.295Z,9.60
2023-01-03T04:49:50.430Z,6.18
2023-01-03T04:52:17.832Z,4.60
2023-01-03T04:54:45.320Z,7.90
2023-01-03T04:57:12.577Z,8.98
2023-01-03T04:59:39.892Z,11.43
2023-01-03T05:02:07.250Z,6.55
2023-01-03T05:04:34.767Z,9.15
2023-01-03T05:07:01.964Z,12.13
2023-01-03T05:09:29.413Z,7.45
2023-01-03T05:11:56.641Z,8.93
2023-01-03T05:14:23.980Z,11.55
2023-01-03T05:16:51.412Z,8.45
2023-01-03T05:19:18.940Z,9.77
2023-01-03T05:22:04.737Z,6.60
2023-01-03T05:24:50.783Z,7.75
2023-01-03T05:27:18.234Z,7.38
2023-01-03T05:29:48.424Z,10.90
2023-01-03T05:32:15.812Z,10.15
2023-01-03T05:34:42.989Z,7.70
2023-01-03T05:37:10.356Z,9.55
2023-01-03T05:39:37.691Z,7.47
2023-01-03T05:42:05.425Z,23.40
2023-01-03T05:44:34.371Z,8.85
2023-01-03T05:47:03.986Z,10.63
2023-01-03T05:49:31.355Z,12.45
2023-01-03T05:51:58.597Z,9.50
2023-01-03T05:54:26.192Z,9.73
2023-01-03T05:56:53.576Z,14.50
2023-01-03T05:59:21.305Z,14.70
2023-01-03T06:01:49.249Z,15.07
2023-01-03T06:04:16.682Z,12.93
2023-01-03T06:06:44.125Z,7.50
2023-01-03T06:09:11.676Z,7.18
2023-01-03T06:11:41.343Z,12.38
2023-01-03T06:14:08.551Z,9.70
2023-01-03T06:16:54.253Z,7.75
2023-01-03T06:19:21.445Z,20.20
2023-01-03T06:21:48.903Z,10.73
2023-01-03T06:24:16.071Z,11.48
2023-01-03T06:26:43.285Z,12.80
2023-01-03T06:29:10.488Z,12.48
2023-01-03T06:31:37.917Z,9.52
2023-01-03T06:34:05.340Z,11.05
2023-01-03T06:36:34.586Z,12.35
2023-01-03T06:39:02.416Z,21.33
2023-01-03T06:41:29.818Z,17.10
2023-01-03T06:43:57.189Z,13.73
2023-01-03T06:46:42.775Z,11.27
2023-01-03T06:52:31.560Z,11.25
2023-01-03T06:55:02.335Z,8.70
2023-01-03T06:57:29.616Z,9.80
2023-01-03T06:59:56.775Z,13.40
2023-01-03T07:02:24.533Z,15.55
2023-01-03T07:04:52.093Z,10.75
2023-01-03T07:07:19.691Z,23.08
2023-01-03T07:09:46.925Z,12.88
2023-01-03T07:12:32.917Z,11.60
2023-01-03T07:15:00.561Z,8.13
2023-01-03T07:17:27.912Z,8.60
2023-01-03T07:19:55.464Z,12.55
2023-01-03T07:22:22.815Z,18.23
2023-01-03T07:24:50.048Z,9.77
2023-01-03T07:27:17.678Z,14.00
2023-01-03T07:29:45.008Z,14.65
2023-01-03T07:32:12.315Z,11.80
2023-01-03T07:34:39.476Z,14.30
2023-01-03T07:37:06.788Z,10.00
2023-01-03T07:39:37.045Z,12.95
2023-01-03T07:42:23.217Z,9.93
2023-01-03T07:44:53.428Z,18.15
2023-01-03T07:47:20.578Z,16.90
2023-01-03T07:49:47.644Z,13.52
2023-01-03T07:52:15.078Z,10.93
2023-01-03T07:54:42.668Z,13.90
2023-01-03T07:57:10.156Z,12.25
2023-01-03T07:59:37.574Z,13.27
2023-01-03T08:02:04.993Z,14.73
2023-01-03T08:04:32.435Z,19.13
2023-01-03T08:06:59.962Z,11.48
2023-01-03T08:09:45.685Z,15.35
2023-01-03T08:12:31.577Z,10.68
2023-01-03T08:14:59.184Z,14.35
2023-01-03T08:17:27.529Z,9.75
2023-01-03T08:19:54.820Z,17.63
2023-01-03T08:22:21.961Z,19.80
2023-01-03T08:24:49.288Z,17.02
2023-01-03T08:27:16.684Z,11.75
2023-01-03T08:29:48.860Z,18.63
2023-01-03T08:32:17.445Z,19.83
2023-01-03T08:34:48.857Z,16.88
2023-01-03T08:37:17.480Z,18.33
2023-01-03T08:39:51.280Z,14.73
2023-01-03T08:42:23.669Z,17.52
2023-01-03T08:44:58.730Z,15.60
2023-01-03T08:47:26.202Z,17.15
2023-01-03T08:49:53.642Z,12.43
2023-01-03T08:52:21.085Z,13.88
2023-01-03T08:54:48.556Z,15.18
2023-01-03T08:57:16.004Z,18.33
2023-01-03T08:59:43.274Z,18.48
2023-01-03T09:02:10.896Z,13.80
2023-01-03T09:04:38.309Z,16.73
2023-01-03T09:07:05.861Z,11.20
2023-01-03T09:09:33.316Z,10.40
2023-01-03T09:12:00.566Z,12.85
2023-01-03T09:14:29.929Z,10.57
2023-01-03T09:16:57.469Z,8.60
2023-01-03T09:19:24.842Z,17.17
2023-01-03T09:21:52.406Z,13.38
2023-01-03T09:24:19.970Z,15.15
2023-01-03T09:26:53.995Z,16.98
2023-01-03T09:29:22.415Z,20.83
2023-01-03T09:31:51.525Z,9.18
2023-01-03T09:34:19.379Z,8.80
2023-01-03T09:36:46.807Z,7.63
2023-01-03T09:39:14.749Z,12.10
2023-01-03T09:41:43.128Z,9.30
2023-01-03T09:44:11.184Z,19.92
2023-01-03T09:46:38.708Z,10.60
2023-01-03T09:49:07.540Z,18.92
2023-01-03T09:52:00.162Z,10.40
2023-01-03T09:54:53.805Z,16.60
2023-01-03T09:57:53.026Z,10.23
2023-01-03T10:00:49.169Z,6.95
2023-01-03T10:03:51.562Z,10.73
2023-01-03T10:06:41.376Z,11.63
2023-01-03T10:09:36.876Z,17.80
2023-01-03T10:12:16.086Z,9.60
2023-01-03T10:15:03.648Z,8.38
2023-01-03T10:17:42.992Z,8.45
2023-01-03T10:20:19.025Z,11.02
2023-01-03T10:22:48.834Z,8.25
2023-01-03T10:25:22.314Z,12.38
2023-01-03T10:27:58.833Z,13.38
2023-01-03T10:31:15.888Z,26.50
2023-01-03T10:33:48.447Z,13.88
2023-01-03T10:36:18.000Z,10.60
2023-01-03T10:38:52.477Z,17.38
2023-01-03T10:41:52.673Z,12.65
2023-01-03T10:44:31.874Z,7.45
2023-01-03T10:47:09.151Z,10.75
2023-01-03T10:49:36.568Z,12.15
2023-01-03T10:52:25.380Z,8.95
2023-01-03T10:55:02.117Z,8.70
2023-01-03T10:57:44.444Z,10.82
2023-01-03T11:00:30.633Z,16.63
2023-01-03T11:03:22.998Z,13.25
2023-01-03T11:06:08.885Z,13.13
2023-01-03T11:08:46.430Z,10.82
2023-01-03T11:11:36.291Z,16.80
2023-01-03T11:14:24.051Z,12.43
2023-01-03T11:16:55.235Z,9.30
2023-01-03T11:19:36.260Z,19.20
2023-01-03T11:22:37.700Z,9.98
2023-01-03T11:25:48.230Z,8.23
2023-01-03T11:28:49.317Z,10.73
2023-01-03T11:31:41.305Z,9.05
2023-01-03T11:34:17.343Z,8.05
2023-01-03T11:36:50.801Z,8.70
2023-01-03T11:39:32.690Z,11.98
2023-01-03T11:42:33.500Z,14.98
2023-01-03T11:45:31.672Z,6.88
2023-01-03T11:48:47.527Z,6.38
2023-01-03T11:51:26.652Z,8.75
2023-01-03T11:54:15.232Z,8.52
2023-01-03T11:56:47.572Z,9.23
2023-01-03T11:59:40.693Z,11.18
2023-01-03T12:02:11.129Z,9.30
2023-01-03T12:05:13.659Z,7.63
2023-01-03T12:07:54.540Z,12.23
2023-01-03T12:10:43.023Z,7.95
2023-01-03T12:13:53.925Z,5.32
2023-01-03T12:16:31.948Z,11.32
2023-01-03T12:19:27.536Z,17.95
2023-01-03T12:22:02.046Z,6.85
2023-01-03T12:24:32.357Z,10.35
2023-01-03T12:27:15.010Z,6.68
2023-01-03T12:29:51.538Z,8.65
2023-01-03T12:32:43.000Z,8.90
2023-01-03T12:35:40.370Z,5.13
2023-01-03T12:38:11.227Z,7.68
2023-01-03T12:41:01.814Z,5.28
2023-01-03T12:43:34.736Z,6.28
2023-01-03T12:46:13.215Z,6.18
2023-01-03T12:49:25.780Z,6.20
2023-01-03T12:51:53.081Z,7.65
2023-01-03T12:54:38.295Z,3.97
2023-01-03T12:57:24.235Z,4.28
2023-01-03T13:00:07.497Z,10.60
2023-01-03T13:02:59.518Z,7.70
2023-01-03T13:05:50.931Z,7.40
2023-01-03T13:08:45.359Z,12.50
2023-01-03T13:11:25.394Z,11.27
2023-01-03T13:14:20.907Z,7.72
2023-01-03T13:17:07.375Z,9.38
2023-01-03T13:19:40.408Z,10.35
2023-01-03T13:22:38.334Z,12.23
2023-01-03T13:25:27.613Z,9.75
2023-01-03T13:27:58.392Z,7.32
2023-01-03T13:30:31.297Z,9.02
2023-01-03T13:33:07.212Z,6.20
2023-01-03T13:35:56.080Z,13.45
2023-01-03T13:38:36.142Z,7.22
2023-01-03T13:41:18.608Z,9.90
2023-01-03T13:43:50.459Z,7.43
2023-01-03T13:46:31.949Z,5.32
2023-01-03T13:49:08.308Z,5.20
2023-01-03T13:51:42.008Z,5.70
2023-01-03T13:54:12.089Z,6.93
2023-01-03T13:56:48.955Z,9.95
2023-01-03T13:59:18.364Z,9.93
2023-01-03T14:02:27.666Z,7.78
2023-01-03T14:05:08.853Z,5.35
2023-01-03T14:07:58.795Z,11.20
2023-01-03T14:10:52.613Z,6.80
2023-01-03T14:13:38.087Z,8.85
2023-01-03T14:16:27.767Z,12.75
2023-01-03T14:19:07.284Z,9.55
2023-01-03T14:21:46.060Z,7.40
2023-01-03T14:24:24.207Z,6.43
2023-01-03T14:26:52.549Z,4.60
2023-01-03T14:29:23.625Z,8.68
2023-01-03T14:31:56.247Z,8.40
2023-01-03T14:34:34.984Z,8.52
2023-01-03T14:37:15.839Z,6.47
2023-01-03T14:39:57.759Z,6.50
2023-01-03T14:42:25.992Z,9.27
2023-01-03T14:45:02.480Z,14.43
2023-01-03T14:47:32.788Z,7.57
2023-01-03T14:50:00.886Z,12.10
2023-01-03T14:52:35.055Z,11.93
2023-01-03T14:55:24.070Z,8.63
2023-01-03T14:57:56.192Z,6.80
2023-01-03T15:00:36.807Z,8.75
2023-01-03T15:03:04.879Z,6.03
2023-01-03T15:05:35.740Z,6.38
2023-01-03T15:08:15.483Z,6.95
2023-01-03T15:10:50.981Z,9.38
2023-01-03T15:13:29.140Z,9.95
2023-01-03T15:15:59.134Z,16.10
2023-01-03T15:18:33.870Z,20.35
2023-01-03T15:21:03.201Z,68.82
2023-01-03T15:23:48.566Z,95.60
2023-01-03T15:26:42.312Z,83.38
2023-01-03T15:29:16.600Z,50.67
2023-01-03T15:31:57.136Z,39.83
2023-01-03T15:34:36.341Z,52.65
2023-01-03T15:37:26.869Z,29.83
2023-01-03T15:39:56.875Z,18.42
2023-01-03T15:42:51.853Z,20.15
2023-01-03T15:45:33.537Z,17.88
2023-01-03T15:48:04.921Z,22.67
2023-01-03T15:50:47.153Z,15.88
2023-01-03T15:53:27.096Z,17.20
2023-01-03T15:56:08.697Z,14.10
2023-01-03T15:58:37.539Z,16.55
2023-01-03T16:01:05.676Z,8.93
2023-01-03T16:03:35.547Z,9.10
2023-01-03T16:06:03.430Z,12.27
2023-01-03T16:08:36.849Z,9.27
2023-01-03T16:11:07.452Z,8.55
2023-01-03T16:13:46.512Z,11.90
2023-01-03T16:16:20.381Z,8.57
2023-01-03T16:18:49.581Z,8.85
2023-01-03T16:21:17.957Z,16.45
2023-01-03T16:23:45.318Z,23.92
2023-01-03T16:26:12.712Z,14.35
2023-01-03T16:28:39.930Z,18.77
2023-01-03T16:31:17.165Z,30.63
2023-01-03T16:33:48.040Z,16.30
2023-01-03T16:36:32.198Z,28.25
2023-01-03T16:38:59.990Z,15.73
2023-01-03T16:41:27.392Z,15.90
2023-01-03T16:43:55.424Z,19.38
2023-01-03T16:46:25.760Z,14.15
2023-01-03T16:48:55.950Z,13.30
2023-01-03T16:51:30.090Z,14.98
2023-01-03T16:53:59.473Z,20.02
2023-01-03T16:56:27.609Z,20.60
2023-01-03T16:58:54.886Z,17.05
2023-01-03T17:01:22.309Z,19.73
2023-01-03T17:03:49.668Z,13.95
2023-01-03T17:06:37.492Z,16.95
2023-01-03T17:09:21.015Z,15.75
2023-01-03T17:11:48.628Z,50.20
2023-01-03T17:14:21.713Z,27.35
2023-01-03T17:16:50.020Z,24.73
2023-01-03T17:22:22.169Z,16.63
2023-01-03T17:24:51.280Z,17.15
2023-01-03T17:27:25.073Z,13.85
2023-01-03T17:30:01.021Z,12.05
2023-01-03T17:32:28.741Z,17.77
2023-01-03T17:34:56.184Z,22.33
2023-01-03T17:37:23.893Z,17.63
2023-01-03T17:39:58.732Z,17.95
2023-01-03T17:42:27.246Z,25.05
2023-01-03T17:45:15.777Z,18.60
2023-01-03T17:48:02.910Z,20.38
2023-01-03T17:50:32.350Z,21.35
2023-01-03T17:53:02.296Z,18.30
2023-01-03T17:55:30.902Z,20.60
2023-01-03T17:58:02.913Z,19.58
2023-01-03T18:00:31.202Z,20.17
2023-01-03T18:03:00.751Z,16.25
2023-01-03T18:05:30.128Z,19.60
2023-01-03T18:08:00.517Z,15.93
2023-01-03T18:10:46.484Z,19.63
2023-01-03T18:13:25.679Z,18.35
2023-01-03T18:15:54.069Z,18.48
2023-01-03T18:18:24.227Z,18.52
2023-01-03T18:20:55.337Z,20.45
2023-01-03T18:23:34.176Z,21.30
2023-01-03T18:26:07.780Z,20.75
2023-01-03T18:28:37.963Z,16.30
2023-01-03T18:31:07.860Z,23.60
2023-01-03T18:33:35.348Z,17.42
2023-01-03T18:36:02.982Z,25.40
2023-01-03T18:38:41.568Z,17.08
2023-01-03T18:41:19.057Z,16.27
2023-01-03T18:43:46.752Z,21.95
2023-01-03T18:46:16.386Z,18.52
2023-01-03T18:48:43.983Z,17.25
2023-01-03T18:51:16.221Z,16.17
2023-01-03T18:53:53.946Z,17.55
2023-01-03T18:56:33.771Z,21.27
2023-01-03T18:59:33.225Z,16.70
2023-01-03T19:02:00.916Z,18.02
2023-01-03T19:04:28.447Z,19.83
2023-01-03T19:06:55.970Z,23.13
2023-01-03T19:09:28.627Z,21.63
2023-01-03T19:11:57.019Z,24.33
2023-01-03T19:14:24.496Z,22.05
2023-01-03T19:16:51.811Z,23.80
2023-01-03T19:19:21.937Z,22.55
2023-01-03T19:21:49.231Z,22.80
2023-01-03T19:24:38.420Z,19.15
2023-01-03T19:27:16.811Z,21.05
2023-01-03T19:29:47.155Z,25.98
2023-01-03T19:32:19.893Z,19.67
2023-01-03T19:34:47.177Z,23.52
2023-01-03T19:37:15.880Z,17.77
2023-01-03T19:39:43.392Z,18.77
2023-01-03T19:42:36.287Z,17.88
2023-01-03T19:45:17.141Z,17.00
2023-01-03T19:47:44.629Z,18.58
2023-01-03T19:50:38.109Z,17.77
2023-01-03T19:53:06.848Z,21.55
2023-01-03T19:55:37.644Z,22.27
2023-01-03T19:58:33.177Z,23.63
2023-01-03T20:01:01.056Z,20.08
2023-01-03T20:03:39.660Z,19.60
2023-01-03T20:06:18.065Z,19.63
2023-01-03T20:08:46.472Z,21.70
2023-01-03T20:11:23.022Z,22.10
2023-01-03T20:13:51.179Z,20.95
2023-01-03T20:16:18.689Z,18.15
2023-01-03T20:18:46.115Z,19.55
2023-01-03T20:21:23.053Z,17.75
2023-01-03T20:23:56.809Z,27.23
2023-01-03T20:26:29.998Z,20.58
2023-01-03T20:29:01.257Z,19.92
2023-01-03T20:31:29.085Z,17.65
2023-01-03T20:33:56.308Z,20.15
2023-01-03T20:36:36.248Z,27.48
2023-01-03T20:39:14.500Z,18.60
2023-01-03T20:41:41.893Z,21.25
2023-01-03T20:44:15.340Z,18.05
2023-01-03T20:46:42.819Z,20.52
2023-01-03T20:49:38.218Z,22.73
2023-01-03T20:52:07.934Z,21.77
2023-01-03T20:54:35.806Z,21.27
2023-01-03T20:57:13.921Z,21.27
2023-01-03T20:59:41.183Z,21.15
2023-01-03T21:02:13.479Z,18.17
2023-01-03T21:04:40.962Z,16.33
2023-01-03T21:07:49.221Z,19.75
2023-01-03T21:10:28.566Z,17.63
2023-01-03T21:12:55.910Z,19.45
2023-01-03T21:15:23.962Z,15.52
2023-01-03T21:17:51.462Z,43.88
2023-01-03T21:20:24.254Z,21.55
2023-01-03T21:22:51.589Z,16.83
2023-01-03T21:25:28.722Z,17.27
2023-01-03T21:27:56.230Z,14.73
2023-01-03T21:30:24.273Z,14.35
2023-01-03T21:32:51.843Z,23.25
2023-01-03T21:35:21.057Z,15.18
2023-01-03T21:37:52.863Z,15.73
2023-01-03T21:40:23.376Z,18.48
2023-01-03T21:43:05.936Z,18.40
2023-01-03T21:45:46.516Z,17.48
2023-01-03T21:48:18.846Z,11.43
2023-01-03T21:50:48.082Z,11.75
2023-01-03T21:53:17.500Z,14.32
2023-01-03T21:55:45.125Z,16.77
2023-01-03T21:58:21.415Z,13.80
2023-01-03T22:00:48.772Z,14.27
2023-01-03T22:03:36.028Z,10.40
2023-01-03T22:06:14.052Z,15.50
2023-01-03T22:08:41.822Z,13.50
2023-01-03T22:11:09.132Z,12.02
2023-01-03T22:13:36.428Z,13.95
2023-01-03T22:16:05.843Z,11.70
2023-01-03T22:18:33.807Z,14.43
2023-01-03T22:21:10.375Z,11.27
2023-01-03T22:23:38.613Z,12.95
2023-01-03T22:26:13.567Z,11.07
2023-01-03T22:28:43.768Z,12.00
2023-01-03T22:31:18.419Z,12.38
2023-01-03T22:33:47.841Z,13.45
2023-01-03T22:36:16.379Z,14.77
2023-01-03T22:38:44.667Z,12.55
2023-01-03T22:41:17.241Z,10.88
2023-01-03T22:43:45.782Z,11.63
2023-01-03T22:46:17.727Z,15.55
2023-01-03T22:48:45.600Z,10.32
2023-01-03T22:51:15.222Z,13.23
2023-01-03T22:53:44.479Z,15.27
2023-01-03T22:56:15.604Z,9.18
2023-01-03T22:58:46.523Z,21.52
2023-01-03T23:01:20.501Z,10.90
2023-01-03T23:03:48.550Z,10.52
2023-01-03T23:06:17.947Z,14.00
2023-01-03T23:08:50.290Z,8.88
2023-01-03T23:11:39.002Z,10.48
2023-01-03T23:14:11.768Z,10.23
2023-01-03T23:16:39.461Z,11.23
2023-01-03T23:19:11.724Z,17.38
2023-01-03T23:21:39.780Z,12.15
2023-01-03T23:24:07.926Z,12.05
2023-01-03T23:26:35.445Z,7.22
2023-01-03T23:29:03.126Z,8.32
2023-01-03T23:31:30.478Z,16.27
2023-01-03T23:33:59.043Z,10.77
2023-01-03T23:36:28.043Z,9.82
2023-01-03T23:38:56.243Z,12.13
2023-01-03T23:41:23.858Z,15.63
2023-01-03T23:43:52.187Z,9.20
2023-01-03T23:46:22.113Z,11.50
2023-01-03T23:48:54.169Z,17.52
2023-01-03T23:51:21.532Z,9.82
2023-01-03T23:53:48.787Z,14.00
2023-01-03T23:56:17.762Z,8.52
2023-01-03T23:58:47.668Z,8.73
